createdAt,value
2023-02-06T00:01:46.149Z,6.60
2023-02-06T00:04:13.839Z,6.60
2023-02-06T00:06:45.790Z,6.60
2023-02-06T00:09:13.040Z,6.50
2023-02-06T00:11:40.182Z,6.50
2023-02-06T00:14:07.520Z,6.50
2023-02-06T00:16:39.281Z,6.50
2023-02-06T00:19:06.688Z,6.50
2023-02-06T00:21:36.369Z,6.40
2023-02-06T00:24:08.674Z,6.40
2023-02-06T00:26:38.391Z,6.40
2023-02-06T00:29:05.996Z,6.40
2023-02-06T00:31:33.197Z,6.30
2023-02-06T00:34:05.115Z,6.30
2023-02-06T00:36:33.588Z,6.30
2023-02-06T00:39:03.236Z,6.20
2023-02-06T00:41:30.548Z,6.20
2023-02-06T00:43:57.693Z,6.20
2023-02-06T00:46:24.956Z,6.20
2023-02-06T00:48:52.264Z,6.20
2023-02-06T00:51:19.451Z,6.10
2023-02-06T00:53:51.032Z,6.10
2023-02-06T00:56:20.948Z,6.10
2023-02-06T00:58:50.591Z,6.10
2023-02-06T01:01:20.400Z,6.00
2023-02-06T01:03:49.762Z,6.00
2023-02-06T01:06:19.833Z,5.90
2023-02-06T01:08:48.111Z,5.90
2023-02-06T01:11:23.080Z,5.90
2023-02-06T01:13:53.024Z,5.80
2023-02-06T01:16:23.806Z,5.80
2023-02-06T01:18:54.030Z,5.80
2023-02-06T01:21:27.397Z,5.80
2023-02-06T01:23:55.358Z,5.80
2023-02-06T01:26:26.843Z,5.70
2023-02-06T01:28:55.068Z,5.70
2023-02-06T01:31:29.940Z,5.70
2023-02-06T01:33:58.983Z,5.70
2023-02-06T01:36:26.956Z,5.70
2023-02-06T01:38:54.132Z,5.70
2023-02-06T01:41:23.585Z,5.70
2023-02-06T01:44:13.613Z,5.70
2023-02-06T01:46:45.123Z,5.70
2023-02-06T01:49:21.061Z,5.70
2023-02-06T01:51:50.091Z,5.70
2023-02-06T01:54:17.567Z,5.70
2023-02-06T01:56:50.363Z,5.70
2023-02-06T01:59:23.028Z,5.70
2023-02-06T02:01:50.482Z,5.70
2023-02-06T02:04:22.878Z,5.70
2023-02-06T02:07:11.948Z,5.70
2023-02-06T02:09:39.123Z,5.60
2023-02-06T02:12:08.782Z,5.60
2023-02-06T02:14:42.240Z,5.60
2023-02-06T02:17:36.467Z,5.60
2023-02-06T02:20:40.951Z,5.60
2023-02-06T02:23:20.918Z,5.60
2023-02-06T02:26:06.906Z,5.60
2023-02-06T02:28:34.094Z,5.60
2023-02-06T02:31:11.216Z,5.60
2023-02-06T02:33:56.499Z,5.60
2023-02-06T02:36:28.872Z,5.60
2023-02-06T02:38:59.046Z,5.60
2023-02-06T02:41:39.801Z,5.60
2023-02-06T02:44:11.456Z,5.60
2023-02-06T02:46:46.414Z,5.60
2023-02-06T02:49:17.217Z,5.60
2023-02-06T02:51:47.054Z,5.60
2023-02-06T02:54:14.459Z,5.60
2023-02-06T02:56:41.714Z,5.60
2023-02-06T02:59:28.404Z,5.60
2023-02-06T03:02:03.142Z,5.60
2023-02-06T03:04:51.136Z,5.60
2023-02-06T03:07:29.495Z,5.60
2023-02-06T03:10:34.352Z,5.60
2023-02-06T03:13:20.750Z,5.70
2023-02-06T03:16:31.060Z,5.70
2023-02-06T03:19:04.966Z,5.70
2023-02-06T03:21:37.038Z,5.60
2023-02-06T03:24:22.717Z,5.70
2023-02-06T03:26:58.454Z,5.70
2023-02-06T03:29:28.147Z,5.70
2023-02-06T03:32:08.632Z,5.70
2023-02-06T03:34:41.543Z,5.70
2023-02-06T03:37:09.454Z,5.70
2023-02-06T03:39:36.779Z,5.70
2023-02-06T03:42:05.348Z,5.70
2023-02-06T03:44:36.203Z,5.70
2023-02-06T03:47:05.189Z,5.80
2023-02-06T03:49:34.382Z,5.80
2023-02-06T03:52:15.241Z,5.80
2023-02-06T03:54:54.123Z,5.80
2023-02-06T03:57:23.203Z,5.80
2023-02-06T03:59:51.578Z,5.80
2023-02-06T04:02:20.237Z,5.70
2023-02-06T04:04:48.220Z,5.70
2023-02-06T04:07:20.281Z,5.70
2023-02-06T04:09:50.180Z,5.70
2023-02-06T04:12:20.449Z,5.70
2023-02-06T04:14:52.160Z,5.70
2023-02-06T04:17:40.701Z,5.70
2023-02-06T04:20:16.290Z,5.60
2023-02-06T04:22:45.516Z,5.60
2023-02-06T04:25:12.860Z,5.60
2023-02-06T04:27:42.098Z,5.60
2023-02-06T04:30:12.247Z,5.60
2023-02-06T04:32:39.425Z,5.60
2023-02-06T04:35:06.674Z,5.50
2023-02-06T04:37:39.016Z,5.50
2023-02-06T04:40:06.743Z,5.50
2023-02-06T04:42:36.224Z,5.50
2023-02-06T04:45:03.659Z,5.50
2023-02-06T04:47:35.903Z,5.50
2023-02-06T04:50:06.926Z,5.50
2023-02-06T04:52:36.410Z,5.50
2023-02-06T04:55:03.757Z,5.50
2023-02-06T04:57:33.126Z,5.50
2023-02-06T05:00:04.279Z,5.60
2023-02-06T05:02:37.329Z,5.60
2023-02-06T05:05:07.798Z,5.60
2023-02-06T05:07:37.571Z,5.60
2023-02-06T05:10:05.193Z,5.60
2023-02-06T05:12:37.079Z,5.60
2023-02-06T05:15:07.287Z,5.60
2023-02-06T05:17:36.838Z,5.60
2023-02-06T05:20:04.792Z,5.60
2023-02-06T05:22:31.952Z,5.60
2023-02-06T05:25:01.583Z,5.60
2023-02-06T05:27:28.744Z,5.60
2023-02-06T05:30:00.504Z,5.60
2023-02-06T05:32:29.688Z,5.60
2023-02-06T05:34:56.803Z,5.60
2023-02-06T05:37:28.292Z,5.70
2023-02-06T05:39:59.852Z,5.70
2023-02-06T05:42:29.514Z,5.70
2023-02-06T05:44:56.706Z,5.70
2023-02-06T05:47:26.121Z,5.70
2023-02-06T05:49:53.259Z,5.70
2023-02-06T05:52:25.072Z,5.60
2023-02-06T05:54:54.414Z,5.70
2023-02-06T05:57:23.882Z,5.70
2023-02-06T05:59:53.128Z,5.70
2023-02-06T06:02:26.852Z,5.70
2023-02-06T06:04:56.458Z,5.70
2023-02-06T06:07:23.650Z,5.70
2023-02-06T06:09:55.226Z,5.70
2023-02-06T06:12:22.580Z,5.70
2023-02-06T06:14:52.121Z,5.70
2023-02-06T06:17:21.523Z,5.70
2023-02-06T06:19:48.632Z,5.80
2023-02-06T06:22:15.810Z,5.80
2023-02-06T06:24:47.631Z,5.80
2023-02-06T06:27:17.367Z,5.80
2023-02-06T06:29:44.544Z,5.80
2023-02-06T06:32:13.754Z,5.80
2023-02-06T06:34:40.887Z,5.80
2023-02-06T06:37:08.009Z,5.80
2023-02-06T06:39:40.024Z,5.80
2023-02-06T06:42:08.178Z,5.80
2023-02-06T06:44:35.362Z,5.80
2023-02-06T06:47:07.019Z,5.80
2023-02-06T06:49:34.408Z,5.90
2023-02-06T06:52:01.588Z,5.90
2023-02-06T06:54:28.757Z,5.90
2023-02-06T06:56:55.917Z,5.90
2023-02-06T06:59:27.655Z,5.90
2023-02-06T07:01:55.407Z,5.90
2023-02-06T07:04:23.084Z,5.90
2023-02-06T07:06:55.265Z,5.90
2023-02-06T07:09:25.527Z,5.90
2023-02-06T07:11:52.660Z,5.90
2023-02-06T07:14:19.980Z,5.90
2023-02-06T07:16:51.615Z,5.90
2023-02-06T07:19:18.913Z,5.90
2023-02-06T07:21:48.225Z,5.90
2023-02-06T07:24:15.377Z,5.90
2023-02-06T07:26:45.251Z,5.90
2023-02-06T07:29:14.691Z,5.90
2023-02-06T07:31:44.449Z,6.00
2023-02-06T07:34:14.613Z,6.00
2023-02-06T07:36:46.319Z,6.00
2023-02-06T07:39:15.520Z,6.00
2023-02-06T07:41:46.572Z,6.00
2023-02-06T07:44:13.855Z,6.00
2023-02-06T07:46:45.622Z,6.00
2023-02-06T07:49:17.745Z,6.00
2023-02-06T07:51:48.130Z,6.00
2023-02-06T07:54:15.836Z,6.00
2023-02-06T07:56:45.155Z,6.00
2023-02-06T07:59:14.622Z,5.90
2023-02-06T08:01:44.017Z,5.90
2023-02-06T08:04:12.078Z,6.00
2023-02-06T08:06:42.655Z,5.90
2023-02-06T08:09:13.480Z,5.90
2023-02-06T08:11:43.989Z,5.90
2023-02-06T08:14:13.367Z,5.90
2023-02-06T08:16:40.687Z,5.90
2023-02-06T08:19:12.780Z,5.90
2023-02-06T08:21:39.989Z,5.90
2023-02-06T08:24:09.906Z,5.90
2023-02-06T08:26:40.010Z,6.00
2023-02-06T08:29:10.433Z,6.00
2023-02-06T08:31:39.629Z,6.00
2023-02-06T08:34:08.591Z,6.00
2023-02-06T08:36:44.050Z,6.10
2023-02-06T08:39:14.215Z,6.10
2023-02-06T08:41:45.930Z,6.10
2023-02-06T08:44:17.317Z,6.10
2023-02-06T08:46:46.301Z,6.10
2023-02-06T08:49:19.244Z,6.20
2023-02-06T08:51:53.903Z,6.20
2023-02-06T08:54:22.778Z,6.20
2023-02-06T08:56:52.011Z,6.30
2023-02-06T08:59:24.009Z,6.30
2023-02-06T09:01:52.478Z,6.30
2023-02-06T09:04:24.602Z,6.30
2023-02-06T09:06:56.710Z,6.40
2023-02-06T09:09:24.439Z,6.40
2023-02-06T09:11:52.031Z,6.40
2023-02-06T09:14:21.298Z,6.50
2023-02-06T09:16:51.162Z,6.50
2023-02-06T09:19:20.955Z,6.60
2023-02-06T09:21:48.094Z,6.60
2023-02-06T09:24:15.305Z,6.60
2023-02-06T09:26:58.421Z,6.70
2023-02-06T09:29:31.897Z,6.70
2023-02-06T09:32:03.701Z,6.80
2023-02-06T09:34:33.166Z,6.80
2023-02-06T09:37:06.237Z,6.90
2023-02-06T09:39:33.737Z,6.90
2023-02-06T09:42:11.407Z,7.00
2023-02-06T09:44:49.572Z,7.00
2023-02-06T09:47:30.378Z,7.10
2023-02-06T09:50:07.689Z,7.20
2023-02-06T09:52:56.067Z,7.20
2023-02-06T09:55:29.068Z,7.30
2023-02-06T09:58:24.106Z,7.40
2023-02-06T10:01:00.144Z,7.40
2023-02-06T10:03:42.407Z,7.40
2023-02-06T10:06:16.325Z,7.50
2023-02-06T10:08:47.187Z,7.50
2023-02-06T10:11:18.697Z,7.50
2023-02-06T10:13:52.703Z,7.50
2023-02-06T10:17:05.058Z,7.60
2023-02-06T10:19:48.187Z,7.60
2023-02-06T10:22:26.920Z,7.50
2023-02-06T10:25:02.528Z,7.50
2023-02-06T10:27:32.761Z,7.50
2023-02-06T10:30:03.517Z,7.60
2023-02-06T10:33:11.804Z,7.60
2023-02-06T10:35:49.816Z,7.60
2023-02-06T10:38:38.880Z,7.60
2023-02-06T10:41:29.319Z,7.70
2023-02-06T10:44:10.655Z,7.80
2023-02-06T10:46:51.076Z,7.80
2023-02-06T10:49:50.185Z,7.80
2023-02-06T10:52:36.831Z,7.90
2023-02-06T10:55:17.512Z,8.00
2023-02-06T10:57:47.192Z,8.00
2023-02-06T11:00:23.924Z,8.10
2023-02-06T11:03:07.100Z,8.10
2023-02-06T11:05:39.881Z,8.20
2023-02-06T11:08:16.484Z,8.20
2023-02-06T11:10:43.751Z,8.20
2023-02-06T11:13:13.927Z,8.30
2023-02-06T11:16:12.915Z,8.40
2023-02-06T11:18:45.413Z,8.40
2023-02-06T11:21:36.139Z,8.50
2023-02-06T11:24:11.498Z,8.50
2023-02-06T11:26:43.541Z,8.60
2023-02-06T11:29:40.922Z,8.60
2023-02-06T11:32:36.039Z,8.60
2023-02-06T11:35:50.018Z,8.70
2023-02-06T11:38:25.361Z,8.70
2023-02-06T11:41:00.655Z,8.70
2023-02-06T11:43:33.981Z,8.70
2023-02-06T11:46:18.235Z,8.70
2023-02-06T11:48:48.641Z,8.80
2023-02-06T11:51:16.927Z,8.80
2023-02-06T11:54:01.874Z,8.80
2023-02-06T11:56:31.469Z,8.80
2023-02-06T11:59:23.315Z,8.80
2023-02-06T12:01:50.982Z,8.80
2023-02-06T12:04:28.278Z,8.90
2023-02-06T12:07:19.304Z,8.90
2023-02-06T12:09:48.724Z,8.90
2023-02-06T12:12:34.500Z,8.90
2023-02-06T12:15:39.948Z,8.90
2023-02-06T12:18:28.672Z,9.00
2023-02-06T12:21:16.813Z,9.00
2023-02-06T12:23:52.901Z,9.00
2023-02-06T12:26:30.452Z,8.90
2023-02-06T12:29:15.259Z,8.90
2023-02-06T12:32:07.446Z,8.90
2023-02-06T12:34:55.922Z,8.90
2023-02-06T12:37:44.228Z,8.80
2023-02-06T12:40:23.245Z,8.80
2023-02-06T12:43:01.006Z,8.80
2023-02-06T12:45:39.779Z,8.80
2023-02-06T12:48:28.832Z,8.80
2023-02-06T12:51:06.146Z,8.80
2023-02-06T12:53:44.931Z,8.80
2023-02-06T12:56:27.038Z,8.80
2023-02-06T12:59:00.344Z,8.70
2023-02-06T13:01:43.015Z,8.60
2023-02-06T13:04:23.717Z,8.70
2023-02-06T13:07:06.397Z,8.70
2023-02-06T13:09:46.817Z,8.70
2023-02-06T13:12:13.973Z,8.60
2023-02-06T13:14:56.108Z,8.60
2023-02-06T13:17:32.162Z,8.60
2023-02-06T13:20:09.143Z,8.50
2023-02-06T13:22:44.786Z,8.50
2023-02-06T13:25:30.665Z,8.50
2023-02-06T13:28:21.803Z,8.60
2023-02-06T13:31:11.739Z,8.60
2023-02-06T13:33:42.951Z,8.70
2023-02-06T13:36:25.377Z,8.70
2023-02-06T13:39:12.493Z,8.70
2023-02-06T13:41:44.635Z,8.70
2023-02-06T13:44:36.754Z,8.60
2023-02-06T13:47:35.484Z,8.70
2023-02-06T13:50:26.494Z,8.60
2023-02-06T13:53:27.495Z,8.60
2023-02-06T13:56:19.433Z,8.50
2023-02-06T13:59:00.695Z,8.60
2023-02-06T14:01:31.489Z,8.60
2023-02-06T14:04:01.413Z,8.60
2023-02-06T14:06:44.161Z,8.60
2023-02-06T14:09:30.730Z,8.70
2023-02-06T14:12:35.536Z,8.70
2023-02-06T14:15:13.944Z,8.70
2023-02-06T14:18:08.952Z,8.70
2023-02-06T14:20:41.795Z,8.80
2023-02-06T14:23:26.037Z,8.90
2023-02-06T14:26:10.802Z,8.90
2023-02-06T14:28:52.784Z,9.00
2023-02-06T14:31:41.147Z,9.00
2023-02-06T14:34:29.939Z,9.10
2023-02-06T14:37:18.790Z,9.10
2023-02-06T14:39:48.960Z,9.20
2023-02-06T14:42:43.224Z,9.20
2023-02-06T14:45:33.820Z,9.20
2023-02-06T14:48:22.120Z,9.20
2023-02-06T14:50:56.628Z,9.30
2023-02-06T14:53:36.984Z,9.30
2023-02-06T14:56:18.688Z,9.30
2023-02-06T14:58:51.423Z,9.30
2023-02-06T15:01:20.812Z,9.40
2023-02-06T15:03:50.284Z,9.40
2023-02-06T15:06:37.723Z,9.40
2023-02-06T15:09:06.497Z,9.40
2023-02-06T15:11:34.723Z,9.30
2023-02-06T15:14:05.361Z,9.30
2023-02-06T15:16:48.057Z,9.30
2023-02-06T15:19:21.497Z,9.30
2023-02-06T15:21:52.827Z,9.30
2023-02-06T15:24:38.024Z,9.30
2023-02-06T15:27:28.665Z,9.40
2023-02-06T15:29:59.413Z,9.30
2023-02-06T15:32:37.919Z,9.40
2023-02-06T15:35:20.186Z,9.40
2023-02-06T15:37:50.137Z,9.40
2023-02-06T15:40:30.810Z,9.30
2023-02-06T15:43:01.896Z,9.20
2023-02-06T15:45:35.926Z,9.10
2023-02-06T15:48:23.632Z,9.10
2023-02-06T15:50:56.470Z,9.00
2023-02-06T15:53:38.577Z,9.00
2023-02-06T15:56:28.371Z,8.90
2023-02-06T15:59:01.589Z,8.90
2023-02-06T16:01:42.308Z,8.90
2023-02-06T16:04:17.994Z,8.90
2023-02-06T16:07:19.891Z,8.90
2023-02-06T16:09:58.792Z,8.80
2023-02-06T16:12:26.079Z,8.80
2023-02-06T16:15:01.254Z,8.70
2023-02-06T16:17:37.077Z,8.70
2023-02-06T16:20:27.032Z,8.70
2023-02-06T16:22:57.750Z,8.70
2023-02-06T16:25:33.578Z,8.60
2023-02-06T16:28:00.854Z,8.50
2023-02-06T16:30:30.662Z,8.50
2023-02-06T16:33:00.192Z,8.50
2023-02-06T16:35:27.419Z,8.40
2023-02-06T16:38:01.681Z,8.50
2023-02-06T16:40:29.008Z,8.40
2023-02-06T16:42:56.220Z,8.40
2023-02-06T16:45:29.987Z,8.40
2023-02-06T16:47:57.171Z,8.30
2023-02-06T16:50:26.618Z,8.30
2023-02-06T16:53:04.469Z,8.30
2023-02-06T16:55:31.767Z,8.30
2023-02-06T16:58:01.370Z,8.20
2023-02-06T17:00:31.615Z,8.20
2023-02-06T17:03:01.636Z,8.20
2023-02-06T17:05:33.251Z,8.10
2023-02-06T17:08:01.875Z,8.10
2023-02-06T17:10:31.366Z,8.00
2023-02-06T17:13:00.671Z,8.00
2023-02-06T17:15:29.097Z,8.00
2023-02-06T17:18:01.070Z,8.00
2023-02-06T17:20:38.312Z,8.00
2023-02-06T17:23:10.879Z,7.90
2023-02-06T17:25:39.565Z,7.90
2023-02-06T17:28:11.903Z,7.90
2023-02-06T17:30:41.976Z,7.90
2023-02-06T17:33:09.423Z,7.90
2023-02-06T17:35:37.824Z,7.80
2023-02-06T17:38:09.533Z,7.80
2023-02-06T17:40:40.961Z,7.80
2023-02-06T17:43:08.629Z,7.80
2023-02-06T17:45:39.944Z,7.80
2023-02-06T17:48:09.324Z,7.80
2023-02-06T17:50:40.761Z,7.80
2023-02-06T17:53:11.924Z,7.80
2023-02-06T17:55:41.532Z,7.80
2023-02-06T17:58:11.360Z,7.70
2023-02-06T18:00:43.039Z,7.70
2023-02-06T18:03:11.415Z,7.70
2023-02-06T18:05:39.187Z,7.70
2023-02-06T18:08:06.461Z,7.60
2023-02-06T18:10:36.502Z,7.60
2023-02-06T18:13:06.993Z,7.60
2023-02-06T18:15:34.317Z,7.60
2023-02-06T18:18:05.838Z,7.60
2023-02-06T18:20:38.087Z,7.50
2023-02-06T18:23:05.621Z,7.50
2023-02-06T18:25:43.320Z,7.50
2023-02-06T18:28:13.885Z,7.40
2023-02-06T18:30:44.170Z,7.40
2023-02-06T18:33:12.796Z,7.30
2023-02-06T18:35:46.504Z,7.30
2023-02-06T18:38:17.134Z,7.30
2023-02-06T18:40:47.829Z,7.20
2023-02-06T18:43:15.829Z,7.10
2023-02-06T18:45:47.507Z,7.00
2023-02-06T18:48:19.058Z,7.00
2023-02-06T18:50:46.171Z,6.90
2023-02-06T18:53:15.980Z,6.90
2023-02-06T18:55:47.668Z,6.90
2023-02-06T18:58:14.888Z,6.80
2023-02-06T19:00:43.355Z,6.80
2023-02-06T19:03:10.581Z,6.70
2023-02-06T19:05:42.488Z,6.70
2023-02-06T19:08:12.176Z,6.70
2023-02-06T19:10:40.874Z,6.70
2023-02-06T19:13:08.093Z,6.60
2023-02-06T19:15:36.098Z,6.60
2023-02-06T19:18:05.533Z,6.60
2023-02-06T19:20:35.614Z,6.50
2023-02-06T19:23:05.013Z,6.50
2023-02-06T19:25:34.506Z,6.50
2023-02-06T19:28:01.695Z,6.40
2023-02-06T19:30:28.898Z,6.40
2023-02-06T19:33:01.003Z,6.40
2023-02-06T19:35:30.167Z,6.30
2023-02-06T19:38:03.531Z,6.30
2023-02-06T19:40:32.795Z,6.30
2023-02-06T19:42:59.895Z,6.30
2023-02-06T19:45:29.238Z,6.20
2023-02-06T19:47:57.184Z,6.20
2023-02-06T19:50:28.940Z,6.20
2023-02-06T19:52:57.162Z,6.20
2023-02-06T19:55:27.273Z,6.20
2023-02-06T19:57:54.437Z,6.10
2023-02-06T20:00:26.800Z,6.10
2023-02-06T20:02:54.065Z,6.10
2023-02-06T20:05:26.374Z,6.00
2023-02-06T20:07:54.065Z,6.00
2023-02-06T20:10:25.029Z,6.00
2023-02-06T20:12:54.869Z,6.00
2023-02-06T20:15:22.591Z,6.00
2023-02-06T20:17:52.298Z,5.90
2023-02-06T20:20:19.555Z,5.90
2023-02-06T20:22:49.082Z,5.90
2023-02-06T20:25:18.866Z,5.90
2023-02-06T20:27:46.095Z,5.80
2023-02-06T20:30:15.792Z,5.80
2023-02-06T20:32:45.575Z,5.80
2023-02-06T20:35:14.827Z,5.80
2023-02-06T20:37:41.990Z,5.80
2023-02-06T20:40:12.797Z,5.70
2023-02-06T20:42:44.511Z,5.70
2023-02-06T20:45:17.162Z,5.70
2023-02-06T20:47:44.602Z,5.70
2023-02-06T20:50:14.616Z,5.70
2023-02-06T20:52:44.383Z,5.70
2023-02-06T20:55:13.863Z,5.60
2023-02-06T20:57:43.317Z,5.60
2023-02-06T21:00:13.439Z,5.60
2023-02-06T21:02:42.921Z,5.60
2023-02-06T21:05:10.141Z,5.50
2023-02-06T21:07:39.742Z,5.50
2023-02-06T21:10:07.141Z,5.50
2023-02-06T21:12:36.471Z,5.40
2023-02-06T21:15:08.938Z,5.40
2023-02-06T21:17:38.530Z,5.30
2023-02-06T21:20:13.619Z,5.30
2023-02-06T21:22:40.831Z,5.20
2023-02-06T21:25:10.564Z,5.20
2023-02-06T21:27:39.937Z,5.20
2023-02-06T21:30:15.107Z,5.10
2023-02-06T21:32:42.379Z,5.10
2023-02-06T21:35:13.738Z,5.10
2023-02-06T21:37:43.792Z,5.00
2023-02-06T21:40:15.465Z,5.00
2023-02-06T21:42:42.677Z,5.00
2023-02-06T21:45:12.372Z,4.90
2023-02-06T21:47:42.014Z,4.90
2023-02-06T21:50:09.369Z,4.90
2023-02-06T21:52:37.014Z,4.90
2023-02-06T21:55:09.269Z,4.90
2023-02-06T21:57:38.447Z,4.90
2023-02-06T22:00:06.344Z,4.80
2023-02-06T22:02:35.773Z,4.90
2023-02-06T22:05:02.943Z,4.90
2023-02-06T22:07:33.060Z,5.00
2023-02-06T22:10:00.179Z,5.00
2023-02-06T22:12:27.289Z,5.00
2023-02-06T22:14:54.554Z,5.10
2023-02-06T22:17:24.285Z,5.10
2023-02-06T22:19:54.414Z,5.10
2023-02-06T22:22:24.113Z,5.10
2023-02-06T22:24:52.447Z,5.00
2023-02-06T22:27:19.634Z,5.00
2023-02-06T22:29:49.015Z,5.00
2023-02-06T22:32:18.632Z,5.00
2023-02-06T22:34:45.829Z,5.00
2023-02-06T22:37:13.005Z,5.00
2023-02-06T22:39:42.375Z,5.00
2023-02-06T22:42:09.530Z,5.00
2023-02-06T22:44:40.979Z,5.00
2023-02-06T22:47:12.305Z,5.10
2023-02-06T22:49:44.074Z,5.10
2023-02-06T22:52:32.090Z,5.10
2023-02-06T22:54:59.228Z,5.10
2023-02-06T22:57:27.642Z,5.10
2023-02-06T22:59:55.033Z,5.20
2023-02-06T23:02:24.625Z,5.20
2023-02-06T23:04:51.867Z,5.20
2023-02-06T23:07:19.035Z,5.20
2023-02-06T23:09:46.290Z,5.20
2023-02-06T23:12:16.273Z,5.20
2023-02-06T23:14:43.700Z,5.20
2023-02-06T23:17:13.072Z,5.20
2023-02-06T23:19:40.443Z,5.20
2023-02-06T23:22:10.685Z,5.10
2023-02-06T23:24:40.262Z,5.10
2023-02-06T23:27:07.453Z,5.10
2023-02-06T23:29:37.113Z,5.10
2023-02-06T23:32:04.431Z,5.10
2023-02-06T23:34:31.565Z,5.10
2023-02-06T23:37:00.957Z,5.10
2023-02-06T23:39:30.575Z,5.00
2023-02-06T23:41:57.714Z,5.00
2023-02-06T23:44:27.049Z,5.00
2023-02-06T23:46:56.418Z,4.90
2023-02-06T23:49:23.552Z,4.90
2023-02-06T23:51:50.672Z,4.90
2023-02-06T23:54:17.847Z,4.90
2023-02-06T23:56:47.054Z,4.90
2023-02-06T23:59:16.478Z,4.90
